Time;durP1;ratioP1;P1;durP2;ratioP2;P2;SDS_P1;SDS_P2;PMS_P1;PMS_P2;Temp;Humidity;BMP_temperature;BMP_pressure;BME280_temperature;BME280_humidity;BME280_pressure;Samples;Min_cycle;Max_cycle;Signal;HPM_P1;HPM_P2
2023/07/19 00:00:44;;;;;;;9.90;6.20;;;;;;;;;;5132940;27;20142;-69
2023/07/19 00:03:11;;;;;;;7.88;5.10;;;;;;;;;;5098585;28;20133;-69
2023/07/19 00:05:37;;;;;;;8.38;5.80;;;;;;;;;;5100071;28;20084;-69
2023/07/19 00:08:04;;;;;;;9.05;5.88;;;;;;;;;;5101908;28;20042;-69
2023/07/19 00:10:30;;;;;;;10.75;6.40;;;;;;;;;;5102227;28;20047;-69
2023/07/19 00:12:56;;;;;;;8.38;6.00;;;;;;;;;;5106141;28;20444;-69
2023/07/19 00:15:23;;;;;;;8.98;5.35;;;;;;;;;;5098975;28;20122;-69
2023/07/19 00:17:49;;;;;;;7.47;5.90;;;;;;;;;;5100586;28;20051;-69
2023/07/19 00:20:16;;;;;;;10.13;6.25;;;;;;;;;;5096792;28;20032;-69
2023/07/19 00:22:42;;;;;;;14.50;6.30;;;;;;;;;;5132317;27;20143;-69
2023/07/19 00:25:08;;;;;;;9.65;6.15;;;;;;;;;;5100059;28;20462;-69
2023/07/19 00:27:40;;;;;;;9.50;6.03;;;;;;;;;;5099793;28;20088;-69
2023/07/19 00:30:07;;;;;;;9.88;5.80;;;;;;;;;;5098405;28;20039;-69
2023/07/19 00:32:33;;;;;;;10.13;6.25;;;;;;;;;;5100353;28;20038;-69
2023/07/19 00:34:59;;;;;;;8.48;6.43;;;;;;;;;;5100769;28;20444;-69
2023/07/19 00:37:25;;;;;;;9.05;6.15;;;;;;;;;;5099248;28;20390;-69
2023/07/19 00:39:52;;;;;;;8.00;6.82;;;;;;;;;;5098427;28;20039;-69
2023/07/19 00:42:18;;;;;;;10.02;6.35;;;;;;;;;;5099735;28;20075;-69
2023/07/19 00:44:44;;;;;;;10.52;6.70;;;;;;;;;;5100091;28;20134;-69
2023/07/19 00:47:11;;;;;;;8.95;6.53;;;;;;;;;;5102351;28;20490;-69
2023/07/19 00:49:40;;;;;;;9.52;6.43;;;;;;;;;;5103009;28;20051;-69
2023/07/19 00:52:07;;;;;;;10.63;6.30;;;;;;;;;;5103793;28;20043;-69
2023/07/19 00:54:33;;;;;;;16.05;7.60;;;;;;;;;;5101545;28;20039;-69
2023/07/19 00:56:59;;;;;;;9.63;6.60;;;;;;;;;;5103006;28;20507;-69
2023/07/19 00:59:27;;;;;;;11.95;6.93;;;;;;;;;;5085782;27;20146;-69
2023/07/19 01:01:53;;;;;;;10.43;6.95;;;;;;;;;;5104640;28;20052;-69
2023/07/19 01:04:19;;;;;;;9.32;7.10;;;;;;;;;;5102152;28;20051;-69
2023/07/19 01:06:45;;;;;;;22.83;8.32;;;;;;;;;;5101530;28;20047;-69
2023/07/19 01:09:12;;;;;;;9.90;7.70;;;;;;;;;;5103901;27;20091;-69
2023/07/19 01:11:38;;;;;;;12.23;7.75;;;;;;;;;;5101330;28;20039;-69
2023/07/19 01:14:05;;;;;;;9.35;7.93;;;;;;;;;;5106519;28;20049;-69
2023/07/19 01:16:31;;;;;;;10.63;7.78;;;;;;;;;;5108388;27;20506;-69
2023/07/19 01:18:57;;;;;;;11.10;8.57;;;;;;;;;;5102022;28;20043;-69
2023/07/19 01:21:23;;;;;;;11.30;8.65;;;;;;;;;;5101814;27;20067;-69
2023/07/19 01:23:50;;;;;;;11.20;7.57;;;;;;;;;;5101476;28;20054;-69
2023/07/19 01:26:16;;;;;;;12.60;8.85;;;;;;;;;;5100432;28;20039;-69
2023/07/19 01:28:43;;;;;;;9.52;7.20;;;;;;;;;;5102178;27;20498;-69
2023/07/19 01:31:15;;;;;;;10.68;8.60;;;;;;;;;;5100507;28;20059;-69
2023/07/19 01:33:41;;;;;;;11.98;8.10;;;;;;;;;;5102542;27;20444;-69
2023/07/19 01:36:07;;;;;;;9.75;8.18;;;;;;;;;;5106564;27;20032;-69
2023/07/19 01:38:34;;;;;;;14.20;8.88;;;;;;;;;;5106695;28;20402;-69
2023/07/19 01:41:01;;;;;;;11.98;8.40;;;;;;;;;;5106789;27;20039;-69
2023/07/19 01:43:27;;;;;;;12.20;7.88;;;;;;;;;;5102942;27;20043;-69
2023/07/19 01:45:53;;;;;;;12.70;8.45;;;;;;;;;;5101042;28;20767;-69
2023/07/19 01:48:19;;;;;;;14.18;9.18;;;;;;;;;;5104424;28;20138;-69
2023/07/19 01:50:47;;;;;;;12.77;9.38;;;;;;;;;;5107635;27;20099;-68
2023/07/19 01:53:13;;;;;;;15.80;9.57;;;;;;;;;;5102249;27;20048;-68
2023/07/19 01:55:40;;;;;;;12.68;8.50;;;;;;;;;;5101419;28;20465;-68
2023/07/19 01:58:06;;;;;;;16.00;9.60;;;;;;;;;;5100876;28;20472;-68
2023/07/19 02:00:32;;;;;;;13.07;9.48;;;;;;;;;;5099648;27;20054;-68
2023/07/19 02:03:00;;;;;;;12.00;9.63;;;;;;;;;;5099460;27;20448;-68
2023/07/19 02:05:26;;;;;;;12.98;9.52;;;;;;;;;;5104035;28;20559;-68
2023/07/19 02:07:52;;;;;;;13.55;9.45;;;;;;;;;;5109857;27;20104;-68
2023/07/19 02:10:18;;;;;;;13.40;9.98;;;;;;;;;;5102736;27;20417;-68
2023/07/19 02:12:45;;;;;;;11.30;8.85;;;;;;;;;;5102207;27;20054;-68
2023/07/19 02:15:11;;;;;;;11.50;9.43;;;;;;;;;;5100903;28;20099;-68
2023/07/19 02:17:37;;;;;;;11.23;8.57;;;;;;;;;;5099299;28;20050;-68
2023/07/19 02:20:04;;;;;;;11.52;9.65;;;;;;;;;;5102062;28;20039;-68
2023/07/19 02:22:30;;;;;;;12.75;9.57;;;;;;;;;;5102745;27;20082;-69
2023/07/19 02:24:56;;;;;;;13.50;8.98;;;;;;;;;;5100805;27;20043;-68
2023/07/19 02:27:23;;;;;;;18.10;10.30;;;;;;;;;;5102126;28;20416;-69
2023/07/19 02:29:49;;;;;;;10.00;7.72;;;;;;;;;;5100679;28;20101;-68
2023/07/19 02:32:15;;;;;;;12.55;9.07;;;;;;;;;;5100712;27;20054;-69
2023/07/19 02:34:41;;;;;;;11.52;8.35;;;;;;;;;;5102535;28;20039;-68
2023/07/19 02:37:07;;;;;;;12.02;8.98;;;;;;;;;;5102933;28;20144;-69
2023/07/19 02:39:34;;;;;;;13.00;8.95;;;;;;;;;;5099723;28;20120;-68
2023/07/19 02:42:00;;;;;;;14.43;9.13;;;;;;;;;;5101350;27;20443;-68
2023/07/19 02:44:26;;;;;;;10.43;8.45;;;;;;;;;;5099562;28;20063;-68
2023/07/19 02:46:52;;;;;;;13.32;10.27;;;;;;;;;;5102027;28;20032;-68
2023/07/19 02:49:19;;;;;;;13.32;9.35;;;;;;;;;;5116164;27;20453;-68
2023/07/19 02:51:45;;;;;;;11.95;8.40;;;;;;;;;;5100948;28;20059;-69
2023/07/19 02:54:11;;;;;;;12.27;8.95;;;;;;;;;;5100413;28;20047;-68
2023/07/19 02:56:37;;;;;;;11.02;8.55;;;;;;;;;;5107393;28;20078;-68
2023/07/19 02:59:04;;;;;;;12.48;9.80;;;;;;;;;;5104340;27;20114;-68
2023/07/19 03:01:30;;;;;;;14.05;10.10;;;;;;;;;;5099633;28;20044;-68
2023/07/19 03:03:57;;;;;;;14.52;9.73;;;;;;;;;;5102523;28;20039;-68
2023/07/19 03:06:23;;;;;;;12.98;9.00;;;;;;;;;;5099864;28;20097;-68
2023/07/19 03:08:49;;;;;;;12.90;8.57;;;;;;;;;;5100819;28;20470;-68
2023/07/19 03:11:16;;;;;;;11.80;8.35;;;;;;;;;;5098605;28;20122;-68
2023/07/19 03:13:42;;;;;;;12.48;9.48;;;;;;;;;;5100224;28;20047;-68
2023/07/19 03:16:08;;;;;;;11.82;9.10;;;;;;;;;;5098333;28;20047;-68
2023/07/19 03:18:34;;;;;;;9.95;7.88;;;;;;;;;;5099955;28;20384;-68
2023/07/19 03:21:01;;;;;;;12.85;8.48;;;;;;;;;;5084934;28;20391;-68
2023/07/19 03:23:30;;;;;;;13.65;8.70;;;;;;;;;;5108595;28;20054;-68
2023/07/19 03:25:58;;;;;;;11.27;8.32;;;;;;;;;;5103158;27;20155;-68
2023/07/19 03:28:30;;;;;;;11.80;8.75;;;;;;;;;;5100679;28;20507;-69
2023/07/19 03:30:57;;;;;;;13.25;8.63;;;;;;;;;;5099322;28;20032;-69
2023/07/19 03:33:24;;;;;;;14.02;9.43;;;;;;;;;;5100086;28;20403;-68
2023/07/19 03:35:50;;;;;;;13.65;9.23;;;;;;;;;;5097749;28;20068;-68
2023/07/19 03:38:18;;;;;;;12.25;9.73;;;;;;;;;;5100479;28;20063;-68
2023/07/19 03:40:44;;;;;;;13.48;8.93;;;;;;;;;;5098941;28;20055;-68
2023/07/19 03:43:11;;;;;;;12.82;9.20;;;;;;;;;;5099752;28;20491;-68
2023/07/19 03:45:37;;;;;;;14.25;9.23;;;;;;;;;;5097791;28;20453;-69
2023/07/19 03:48:03;;;;;;;11.05;9.68;;;;;;;;;;5098621;28;20040;-68
2023/07/19 03:50:29;;;;;;;13.18;10.20;;;;;;;;;;5130854;27;20055;-68
2023/07/19 03:52:56;;;;;;;16.15;10.27;;;;;;;;;;5102850;28;20059;-68
2023/07/19 03:55:22;;;;;;;13.68;9.82;;;;;;;;;;5083830;28;20044;-69
2023/07/19 03:57:48;;;;;;;19.23;9.75;;;;;;;;;;5104827;28;20058;-69
2023/07/19 04:00:14;;;;;;;13.95;9.43;;;;;;;;;;5104525;28;20092;-69
2023/07/19 04:02:40;;;;;;;11.50;8.93;;;;;;;;;;5105076;28;20043;-68
2023/07/19 04:05:07;;;;;;;13.27;9.07;;;;;;;;;;5131941;27;20478;-68
2023/07/19 04:07:33;;;;;;;14.02;8.45;;;;;;;;;;5102358;28;20387;-69
2023/07/19 04:09:59;;;;;;;10.32;9.10;;;;;;;;;;5098547;28;20146;-69
2023/07/19 04:12:25;;;;;;;10.13;7.25;;;;;;;;;;5097246;28;20079;-69
2023/07/19 04:14:51;;;;;;;14.05;8.20;;;;;;;;;;5098910;28;20031;-69
2023/07/19 04:17:18;;;;;;;12.88;7.78;;;;;;;;;;5096127;28;20404;-69
2023/07/19 04:19:44;;;;;;;13.05;7.70;;;;;;;;;;5099979;28;20051;-68
2023/07/19 04:22:10;;;;;;;15.38;7.93;;;;;;;;;;5103822;28;20062;-69
2023/07/19 04:24:36;;;;;;;11.60;7.40;;;;;;;;;;5102385;27;20131;-69
2023/07/19 04:27:03;;;;;;;11.10;7.03;;;;;;;;;;5102085;27;20047;-67
2023/07/19 04:29:29;;;;;;;12.00;7.05;;;;;;;;;;5101271;28;20273;-68
2023/07/19 04:31:55;;;;;;;15.95;8.38;;;;;;;;;;5103609;28;20071;-68
2023/07/19 04:34:21;;;;;;;13.05;7.70;;;;;;;;;;5107128;27;20040;-68
2023/07/19 04:36:48;;;;;;;13.43;7.93;;;;;;;;;;5093776;28;20113;-68
2023/07/19 04:39:14;;;;;;;13.23;7.72;;;;;;;;;;5108031;28;20371;-68
2023/07/19 04:41:40;;;;;;;13.25;8.05;;;;;;;;;;5105690;27;20136;-68
2023/07/19 04:44:06;;;;;;;11.07;8.02;;;;;;;;;;5108421;27;20478;-68
2023/07/19 04:46:32;;;;;;;13.48;7.32;;;;;;;;;;5107386;28;20047;-69
2023/07/19 04:48:59;;;;;;;12.20;6.57;;;;;;;;;;5105167;28;20058;-68
2023/07/19 04:51:25;;;;;;;13.50;6.30;;;;;;;;;;5103782;28;20475;-69
2023/07/19 04:53:51;;;;;;;11.80;6.25;;;;;;;;;;5108451;28;20502;-74
2023/07/19 04:56:17;;;;;;;9.93;5.75;;;;;;;;;;5105632;28;20521;-74
2023/07/19 04:58:43;;;;;;;15.15;6.22;;;;;;;;;;5111286;27;20047;-70
2023/07/19 05:01:10;;;;;;;13.15;5.30;;;;;;;;;;5108769;28;20469;-68
2023/07/19 05:03:37;;;;;;;12.23;4.53;;;;;;;;;;5112068;28;20062;-68
2023/07/19 05:06:03;;;;;;;10.23;4.55;;;;;;;;;;5110027;28;20123;-68
2023/07/19 05:08:29;;;;;;;9.98;3.90;;;;;;;;;;5109746;27;20059;-69
2023/07/19 05:10:55;;;;;;;8.90;3.08;;;;;;;;;;5108606;28;20524;-69
2023/07/19 05:13:21;;;;;;;11.38;4.20;;;;;;;;;;5092661;28;20150;-68
2023/07/19 05:15:48;;;;;;;9.18;3.10;;;;;;;;;;5112284;27;20376;-68
2023/07/19 05:18:14;;;;;;;13.68;3.88;;;;;;;;;;5111020;28;20044;-69
2023/07/19 05:20:40;;;;;;;8.55;3.72;;;;;;;;;;5109695;28;20036;-69
2023/07/19 05:23:06;;;;;;;6.82;3.60;;;;;;;;;;5108819;28;20079;-69
2023/07/19 05:25:33;;;;;;;7.05;3.13;;;;;;;;;;5114158;27;20464;-68
2023/07/19 05:27:59;;;;;;;11.68;3.55;;;;;;;;;;5109171;28;20050;-68
2023/07/19 05:30:25;;;;;;;9.57;3.15;;;;;;;;;;5110030;28;20104;-68
2023/07/19 05:32:51;;;;;;;9.32;3.15;;;;;;;;;;5109136;27;20036;-68
2023/07/19 05:35:18;;;;;;;12.30;3.70;;;;;;;;;;5110688;28;20078;-70
2023/07/19 05:37:44;;;;;;;8.80;3.15;;;;;;;;;;5110714;28;20044;-68
2023/07/19 05:40:10;;;;;;;9.60;3.70;;;;;;;;;;5092254;28;20078;-70
2023/07/19 05:42:36;;;;;;;9.00;3.42;;;;;;;;;;5109286;27;20043;-68
2023/07/19 05:45:03;;;;;;;8.48;3.20;;;;;;;;;;5110297;28;20425;-68
2023/07/19 05:47:29;;;;;;;8.02;4.15;;;;;;;;;;5106749;28;20491;-68
2023/07/19 05:49:55;;;;;;;7.00;3.10;;;;;;;;;;5111086;28;20059;-69
2023/07/19 05:52:22;;;;;;;10.52;3.25;;;;;;;;;;5106907;27;20097;-68
2023/07/19 05:54:48;;;;;;;8.18;3.42;;;;;;;;;;5093022;28;20047;-67
2023/07/19 05:57:14;;;;;;;7.15;2.65;;;;;;;;;;5110182;28;20084;-67
2023/07/19 05:59:42;;;;;;;11.65;3.20;;;;;;;;;;5110029;28;20062;-67
2023/07/19 06:02:08;;;;;;;8.93;3.67;;;;;;;;;;5107787;27;20050;-68
2023/07/19 06:04:35;;;;;;;13.95;3.22;;;;;;;;;;5087626;28;20560;-67
2023/07/19 06:07:01;;;;;;;5.45;2.53;;;;;;;;;;5111098;27;20042;-70
2023/07/19 06:09:28;;;;;;;10.05;3.58;;;;;;;;;;5092563;28;20132;-67
2023/07/19 06:11:56;;;;;;;7.55;2.78;;;;;;;;;;5110378;28;20602;-68
2023/07/19 06:14:23;;;;;;;8.02;2.92;;;;;;;;;;5107913;27;20047;-67
2023/07/19 06:16:50;;;;;;;7.47;2.88;;;;;;;;;;5108228;27;20054;-67
2023/07/19 06:19:18;;;;;;;7.05;2.28;;;;;;;;;;5111048;27;20046;-67
2023/07/19 06:21:44;;;;;;;6.63;2.28;;;;;;;;;;5109044;28;20227;-66
2023/07/19 06:24:11;;;;;;;5.05;2.22;;;;;;;;;;5108277;27;20041;-67
2023/07/19 06:26:37;;;;;;;8.10;2.95;;;;;;;;;;5111213;27;20521;-76
2023/07/19 06:29:03;;;;;;;4.95;2.30;;;;;;;;;;5110952;28;20039;-67
2023/07/19 06:31:29;;;;;;;8.18;2.63;;;;;;;;;;5106600;27;20063;-67
2023/07/19 06:33:56;;;;;;;5.85;2.55;;;;;;;;;;5106616;28;20154;-67
2023/07/19 06:36:22;;;;;;;7.82;2.80;;;;;;;;;;5105677;28;20040;-67
2023/07/19 06:38:48;;;;;;;5.93;2.67;;;;;;;;;;5103825;27;20055;-67
2023/07/19 06:41:14;;;;;;;10.05;3.22;;;;;;;;;;5108742;28;20047;-67
2023/07/19 06:43:41;;;;;;;7.05;2.33;;;;;;;;;;5109111;28;20453;-67
2023/07/19 06:46:07;;;;;;;6.47;2.92;;;;;;;;;;5107056;28;20054;-67
2023/07/19 06:48:33;;;;;;;6.03;2.17;;;;;;;;;;5109279;27;20054;-67
2023/07/19 06:51:00;;;;;;;6.00;2.08;;;;;;;;;;5109411;27;20060;-67
2023/07/19 06:53:26;;;;;;;7.90;3.15;;;;;;;;;;5109552;28;20043;-68
2023/07/19 06:55:54;;;;;;;5.47;2.40;;;;;;;;;;5091906;28;20043;-67
2023/07/19 06:58:21;;;;;;;6.20;2.08;;;;;;;;;;5108694;28;20044;-67
2023/07/19 07:00:47;;;;;;;9.55;2.13;;;;;;;;;;5110056;28;20085;-66
2023/07/19 07:03:13;;;;;;;6.88;2.42;;;;;;;;;;5108017;28;20083;-83
2023/07/19 07:05:39;;;;;;;6.55;2.30;;;;;;;;;;5107286;28;20130;-67
2023/07/19 07:08:05;;;;;;;4.50;2.10;;;;;;;;;;5110213;28;20044;-67
2023/07/19 07:10:32;;;;;;;7.80;2.15;;;;;;;;;;5106785;28;20041;-67
2023/07/19 07:12:58;;;;;;;6.18;2.00;;;;;;;;;;5109818;28;20122;-67
2023/07/19 07:15:24;;;;;;;7.30;2.10;;;;;;;;;;5109630;28;20043;-67
2023/07/19 07:17:50;;;;;;;10.70;1.80;;;;;;;;;;5107098;27;20396;-67
2023/07/19 07:20:17;;;;;;;5.53;1.90;;;;;;;;;;5106438;28;20051;-67
2023/07/19 07:22:43;;;;;;;6.55;2.00;;;;;;;;;;5109413;28;20058;-67
2023/07/19 07:25:10;;;;;;;6.20;2.00;;;;;;;;;;5113324;27;20367;-68
2023/07/19 07:27:36;;;;;;;6.18;2.17;;;;;;;;;;5110362;28;20101;-67
2023/07/19 07:30:02;;;;;;;6.43;2.00;;;;;;;;;;5109733;28;20193;-67
2023/07/19 07:32:28;;;;;;;7.20;1.90;;;;;;;;;;5110396;27;20134;-67
2023/07/19 07:34:55;;;;;;;7.20;2.88;;;;;;;;;;5110636;28;20043;-67
2023/07/19 07:37:21;;;;;;;4.95;2.17;;;;;;;;;;5111787;28;20509;-68
2023/07/19 07:39:47;;;;;;;7.65;2.00;;;;;;;;;;5109787;28;20040;-68
2023/07/19 07:42:13;;;;;;;5.55;1.85;;;;;;;;;;5112188;28;20044;-67
2023/07/19 07:44:39;;;;;;;7.32;1.95;;;;;;;;;;5110617;28;20066;-67
2023/07/19 07:47:06;;;;;;;4.70;1.45;;;;;;;;;;5108622;28;20093;-67
2023/07/19 07:49:32;;;;;;;8.18;2.95;;;;;;;;;;5138462;27;20535;-68
2023/07/19 07:51:59;;;;;;;5.07;2.05;;;;;;;;;;5105330;28;20054;-68
2023/07/19 07:54:25;;;;;;;4.65;1.42;;;;;;;;;;5104999;28;20169;-67
2023/07/19 07:56:51;;;;;;;5.00;1.42;;;;;;;;;;5101032;28;20051;-68
2023/07/19 07:59:17;;;;;;;4.53;1.65;;;;;;;;;;5107693;28;20039;-68
2023/07/19 08:01:43;;;;;;;5.10;1.83;;;;;;;;;;5110027;28;20032;-68
2023/07/19 08:04:11;;;;;;;7.13;1.50;;;;;;;;;;5109398;28;20048;-68
2023/07/19 08:06:37;;;;;;;6.22;1.52;;;;;;;;;;5113021;28;20380;-67
2023/07/19 08:09:04;;;;;;;9.15;1.63;;;;;;;;;;5106531;27;20487;-68
2023/07/19 08:11:32;;;;;;;4.03;1.25;;;;;;;;;;5113563;27;20035;-67
2023/07/19 08:13:58;;;;;;;7.53;1.70;;;;;;;;;;5110540;28;20076;-68
2023/07/19 08:16:24;;;;;;;9.40;2.75;;;;;;;;;;5114912;28;20039;-68
2023/07/19 08:18:50;;;;;;;4.72;1.67;;;;;;;;;;5113371;28;20031;-68
2023/07/19 08:21:17;;;;;;;7.15;1.50;;;;;;;;;;5101986;28;20119;-68
2023/07/19 08:23:43;;;;;;;6.30;2.08;;;;;;;;;;5114779;28;20097;-65
2023/07/19 08:26:09;;;;;;;6.30;1.70;;;;;;;;;;5113915;28;20150;-65
2023/07/19 08:28:35;;;;;;;7.05;1.70;;;;;;;;;;5115411;28;20040;-65
2023/07/19 08:31:02;;;;;;;5.55;1.70;;;;;;;;;;5112724;27;20043;-65
2023/07/19 08:33:28;;;;;;;5.93;1.40;;;;;;;;;;5105460;28;20036;-65
2023/07/19 08:35:54;;;;;;;7.80;2.20;;;;;;;;;;5109485;27;20043;-66
2023/07/19 08:38:20;;;;;;;4.38;1.38;;;;;;;;;;5115232;27;20039;-65
2023/07/19 08:41:02;;;;;;;4.68;1.35;;;;;;;;;;5115671;28;20459;-65
2023/07/19 08:43:32;;;;;;;7.53;1.45;;;;;;;;;;5101634;28;20150;-65
2023/07/19 08:45:59;;;;;;;4.70;1.50;;;;;;;;;;5114231;28;20075;-65
2023/07/19 08:48:25;;;;;;;5.47;1.42;;;;;;;;;;5113366;28;20048;-65
2023/07/19 08:50:58;;;;;;;3.40;1.38;;;;;;;;;;5113441;27;20445;-65
2023/07/19 08:53:25;;;;;;;6.85;1.90;;;;;;;;;;5113747;28;20048;-65
2023/07/19 08:55:51;;;;;;;4.47;1.58;;;;;;;;;;5114112;28;20075;-65
2023/07/19 08:58:18;;;;;;;4.93;1.63;;;;;;;;;;5112465;28;20036;-64
2023/07/19 09:00:50;;;;;;;9.23;2.33;;;;;;;;;;5096692;28;20035;-64
2023/07/19 09:03:17;;;;;;;4.47;1.88;;;;;;;;;;5112686;28;20131;-65
2023/07/19 09:05:46;;;;;;;4.47;1.75;;;;;;;;;;5111174;28;20059;-65
2023/07/19 09:08:13;;;;;;;5.13;1.80;;;;;;;;;;5114478;28;20390;-65
2023/07/19 09:10:44;;;;;;;6.05;1.90;;;;;;;;;;5113361;28;20082;-65
2023/07/19 09:13:10;;;;;;;7.85;2.90;;;;;;;;;;5112722;28;20051;-65
2023/07/19 09:15:36;;;;;;;13.50;2.50;;;;;;;;;;5113833;28;20039;-64
2023/07/19 09:18:04;;;;;;;10.60;2.72;;;;;;;;;;5114518;27;20031;-65
2023/07/19 09:20:30;;;;;;;7.85;3.20;;;;;;;;;;5114378;28;20093;-65
2023/07/19 09:22:58;;;;;;;5.82;2.30;;;;;;;;;;5114786;28;20035;-65
2023/07/19 09:25:24;;;;;;;6.15;2.45;;;;;;;;;;5112348;28;20048;-65
2023/07/19 09:27:53;;;;;;;9.10;2.53;;;;;;;;;;5113983;28;20039;-64
2023/07/19 09:30:19;;;;;;;6.20;2.10;;;;;;;;;;5113083;28;20127;-65
2023/07/19 09:32:58;;;;;;;9.90;3.15;;;;;;;;;;5113813;27;20429;-65
2023/07/19 09:35:28;;;;;;;5.72;2.20;;;;;;;;;;5112738;28;20054;-65
2023/07/19 09:37:55;;;;;;;5.82;2.60;;;;;;;;;;5113164;28;20119;-65
2023/07/19 09:40:22;;;;;;;4.50;2.05;;;;;;;;;;5113263;28;20047;-65
2023/07/19 09:42:49;;;;;;;6.53;2.13;;;;;;;;;;5113455;28;20842;-65
2023/07/19 09:45:17;;;;;;;6.13;1.70;;;;;;;;;;5114231;28;20050;-65
2023/07/19 09:47:45;;;;;;;4.72;1.50;;;;;;;;;;5114292;27;20391;-65
2023/07/19 09:50:12;;;;;;;5.50;2.15;;;;;;;;;;5095830;28;20079;-65
2023/07/19 09:52:39;;;;;;;4.57;1.40;;;;;;;;;;5114108;28;20101;-65
2023/07/19 09:55:06;;;;;;;4.47;1.45;;;;;;;;;;5112886;28;20103;-65
2023/07/19 09:57:33;;;;;;;5.60;2.55;;;;;;;;;;5114235;28;20051;-65
2023/07/19 09:59:59;;;;;;;6.97;2.03;;;;;;;;;;5112620;28;20040;-65
2023/07/19 10:02:26;;;;;;;4.47;1.60;;;;;;;;;;5112288;27;20075;-65
2023/07/19 10:04:52;;;;;;;3.50;1.50;;;;;;;;;;5111964;27;20040;-65
2023/07/19 10:07:25;;;;;;;5.90;1.73;;;;;;;;;;5113331;28;20039;-65
2023/07/19 10:10:01;;;;;;;3.72;1.40;;;;;;;;;;5094570;28;20066;-65
2023/07/19 10:12:27;;;;;;;4.90;1.60;;;;;;;;;;5112371;28;20047;-64
2023/07/19 10:14:54;;;;;;;7.35;1.88;;;;;;;;;;5110752;28;20376;-65
2023/07/19 10:17:20;;;;;;;3.50;1.45;;;;;;;;;;5112618;27;20450;-65
2023/07/19 10:20:06;;;;;;;4.65;1.30;;;;;;;;;;5111936;28;20089;-65
2023/07/19 10:22:51;;;;;;;5.03;1.40;;;;;;;;;;5111305;28;20054;-65
2023/07/19 10:25:22;;;;;;;3.90;1.50;;;;;;;;;;5109960;28;20104;-65
2023/07/19 10:28:07;;;;;;;5.38;1.77;;;;;;;;;;5113361;28;20035;-65
2023/07/19 10:30:43;;;;;;;6.28;1.38;;;;;;;;;;5111491;28;20061;-65
2023/07/19 10:33:10;;;;;;;4.60;1.48;;;;;;;;;;5111903;27;20071;-65
2023/07/19 10:35:36;;;;;;;4.55;1.80;;;;;;;;;;5111611;28;20069;-65
2023/07/19 10:38:02;;;;;;;5.53;1.50;;;;;;;;;;5104962;28;20039;-65
2023/07/19 10:40:29;;;;;;;6.95;1.98;;;;;;;;;;5105901;28;20112;-65
2023/07/19 10:42:55;;;;;;;4.18;1.58;;;;;;;;;;5111536;28;20043;-65
2023/07/19 10:45:25;;;;;;;4.28;1.20;;;;;;;;;;5110423;28;20075;-65
2023/07/19 10:47:51;;;;;;;4.75;1.42;;;;;;;;;;5107017;27;20104;-66
2023/07/19 10:50:17;;;;;;;4.70;1.50;;;;;;;;;;5108797;28;20059;-65
2023/07/19 10:52:46;;;;;;;6.40;1.20;;;;;;;;;;5106092;28;20135;-66
2023/07/19 10:55:13;;;;;;;3.10;1.20;;;;;;;;;;5141547;27;20110;-65
2023/07/19 10:57:40;;;;;;;4.95;1.45;;;;;;;;;;5110512;28;20048;-66
2023/07/19 11:00:13;;;;;;;4.85;1.40;;;;;;;;;;5110972;28;20040;-66
2023/07/19 11:02:40;;;;;;;3.35;1.25;;;;;;;;;;5109767;28;20047;-66
2023/07/19 11:05:10;;;;;;;4.15;1.23;;;;;;;;;;5109559;27;20049;-66
2023/07/19 11:07:36;;;;;;;2.35;0.82;;;;;;;;;;5112729;28;20052;-66
2023/07/19 11:10:06;;;;;;;4.45;1.10;;;;;;;;;;5112565;28;20058;-66
2023/07/19 11:12:33;;;;;;;2.92;1.40;;;;;;;;;;5111108;28;20133;-65
2023/07/19 11:15:01;;;;;;;4.28;1.13;;;;;;;;;;5111934;28;20058;-79
2023/07/19 11:17:28;;;;;;;4.22;1.25;;;;;;;;;;5108605;28;20767;-64
2023/07/19 11:19:54;;;;;;;4.63;1.40;;;;;;;;;;5106460;28;20050;-65
2023/07/19 11:22:24;;;;;;;4.00;1.30;;;;;;;;;;5108322;28;20073;-64
2023/07/19 11:24:51;;;;;;;3.67;1.20;;;;;;;;;;5106541;28;20046;-65
2023/07/19 11:27:18;;;;;;;6.55;1.35;;;;;;;;;;5107280;28;20043;-65
2023/07/19 11:29:55;;;;;;;3.97;1.20;;;;;;;;;;5106302;28;20126;-65
2023/07/19 11:32:23;;;;;;;2.70;0.85;;;;;;;;;;5104080;28;20047;-65
2023/07/19 11:34:52;;;;;;;3.20;1.52;;;;;;;;;;5111251;28;20054;-65
2023/07/19 11:37:28;;;;;;;4.68;1.27;;;;;;;;;;5112535;28;20040;-65
2023/07/19 11:39:57;;;;;;;3.22;1.00;;;;;;;;;;5111351;28;20107;-65
2023/07/19 11:42:42;;;;;;;11.98;1.45;;;;;;;;;;5112212;28;20056;-65
2023/07/19 11:45:11;;;;;;;2.97;1.10;;;;;;;;;;5105657;28;20051;-65
2023/07/19 11:47:37;;;;;;;5.68;1.20;;;;;;;;;;5110500;28;20042;-65
2023/07/19 11:50:05;;;;;;;3.30;1.35;;;;;;;;;;5108779;28;20379;-65
2023/07/19 11:52:32;;;;;;;3.72;1.02;;;;;;;;;;5110761;28;20448;-65
2023/07/19 11:54:58;;;;;;;2.47;0.98;;;;;;;;;;5110143;28;20505;-65
2023/07/19 11:57:24;;;;;;;4.45;0.88;;;;;;;;;;5112069;28;20047;-65
2023/07/19 11:59:51;;;;;;;3.05;0.88;;;;;;;;;;5109922;28;20463;-65
2023/07/19 12:02:17;;;;;;;3.08;1.13;;;;;;;;;;5109738;28;20096;-65
2023/07/19 12:04:44;;;;;;;3.28;1.10;;;;;;;;;;5111222;28;20111;-65
2023/07/19 12:07:11;;;;;;;4.18;0.95;;;;;;;;;;5110895;28;20047;-65
2023/07/19 12:09:37;;;;;;;3.45;0.98;;;;;;;;;;5110607;28;20047;-65
2023/07/19 12:12:03;;;;;;;3.55;1.20;;;;;;;;;;5111820;28;20493;-65
2023/07/19 12:14:29;;;;;;;2.58;1.02;;;;;;;;;;5109435;28;20040;-65
2023/07/19 12:16:55;;;;;;;3.78;1.10;;;;;;;;;;5110017;28;20100;-65
2023/07/19 12:19:22;;;;;;;3.55;1.17;;;;;;;;;;5108278;28;20045;-67
2023/07/19 12:21:48;;;;;;;2.97;1.05;;;;;;;;;;5109744;28;20491;-65
2023/07/19 12:24:14;;;;;;;7.43;1.65;;;;;;;;;;5111578;28;20047;-65
2023/07/19 12:26:40;;;;;;;4.90;0.90;;;;;;;;;;5111738;28;20048;-65
2023/07/19 12:29:06;;;;;;;2.30;0.70;;;;;;;;;;5110141;28;20340;-65
2023/07/19 12:31:32;;;;;;;4.40;0.90;;;;;;;;;;5111266;28;20081;-65
2023/07/19 12:33:59;;;;;;;3.78;1.00;;;;;;;;;;5111690;28;20050;-65
2023/07/19 12:36:26;;;;;;;3.95;0.90;;;;;;;;;;5109430;28;20518;-65
2023/07/19 12:38:53;;;;;;;2.05;0.90;;;;;;;;;;5111184;28;20114;-83
2023/07/19 12:41:19;;;;;;;3.58;1.08;;;;;;;;;;5110372;27;20182;-65
2023/07/19 12:43:46;;;;;;;2.92;1.23;;;;;;;;;;5112216;28;20468;-64
2023/07/19 12:46:12;;;;;;;2.10;1.00;;;;;;;;;;5114832;28;20179;-65
2023/07/19 12:48:38;;;;;;;3.78;1.10;;;;;;;;;;5114399;27;20043;-65
2023/07/19 12:51:06;;;;;;;3.03;0.90;;;;;;;;;;5113398;27;20509;-65
2023/07/19 12:53:34;;;;;;;4.28;0.90;;;;;;;;;;5113055;27;20035;-63
2023/07/19 12:56:00;;;;;;;5.43;0.93;;;;;;;;;;5114606;28;20078;-65
2023/07/19 12:58:27;;;;;;;3.72;0.88;;;;;;;;;;5114601;28;20400;-65
2023/07/19 13:00:53;;;;;;;2.05;0.68;;;;;;;;;;5113981;28;20074;-64
2023/07/19 13:03:20;;;;;;;3.40;0.80;;;;;;;;;;5113403;27;20047;-63
2023/07/19 13:05:48;;;;;;;2.35;0.85;;;;;;;;;;5115081;28;20411;-65
2023/07/19 13:08:14;;;;;;;4.05;0.70;;;;;;;;;;5112873;27;20071;-63
2023/07/19 13:10:40;;;;;;;4.20;0.90;;;;;;;;;;5112863;28;20096;-64
2023/07/19 13:13:07;;;;;;;3.63;0.80;;;;;;;;;;5114215;28;20364;-65
2023/07/19 13:15:33;;;;;;;2.10;0.90;;;;;;;;;;5114625;28;20501;-65
2023/07/19 13:17:59;;;;;;;4.85;1.30;;;;;;;;;;5113184;28;20372;-64
2023/07/19 13:20:25;;;;;;;5.10;1.15;;;;;;;;;;5114836;28;20082;-64
2023/07/19 13:22:52;;;;;;;2.97;1.00;;;;;;;;;;5112800;28;20052;-65
2023/07/19 13:25:18;;;;;;;3.70;1.17;;;;;;;;;;5113439;28;20052;-64
2023/07/19 13:27:46;;;;;;;3.67;1.38;;;;;;;;;;5114615;28;20031;-65
2023/07/19 13:30:12;;;;;;;5.25;1.00;;;;;;;;;;5113538;27;20410;-65
2023/07/19 13:32:38;;;;;;;3.92;1.38;;;;;;;;;;5112823;28;20062;-64
2023/07/19 13:35:05;;;;;;;3.08;1.08;;;;;;;;;;5113076;28;20039;-65
2023/07/19 13:37:31;;;;;;;2.63;0.90;;;;;;;;;;5113186;28;20134;-77
2023/07/19 13:39:57;;;;;;;2.00;0.70;;;;;;;;;;5113731;27;20031;-65
2023/07/19 13:42:24;;;;;;;2.45;0.73;;;;;;;;;;5113652;28;20093;-65
2023/07/19 13:44:50;;;;;;;3.35;1.00;;;;;;;;;;5113023;28;20065;-65
2023/07/19 13:47:17;;;;;;;3.78;1.02;;;;;;;;;;5112380;27;20079;-65
2023/07/19 13:49:44;;;;;;;2.78;0.90;;;;;;;;;;5111744;28;20039;-65
2023/07/19 13:52:10;;;;;;;2.83;0.90;;;;;;;;;;5109601;27;20052;-66
2023/07/19 13:54:36;;;;;;;2.53;0.85;;;;;;;;;;5111868;28;20445;-70
2023/07/19 13:57:04;;;;;;;1.65;0.85;;;;;;;;;;5112832;27;20072;-65
2023/07/19 13:59:30;;;;;;;2.28;0.80;;;;;;;;;;5112057;28;20047;-64
2023/07/19 14:01:57;;;;;;;3.33;0.93;;;;;;;;;;5111991;28;20050;-65
2023/07/19 14:04:23;;;;;;;3.28;1.08;;;;;;;;;;5112966;27;20399;-65
2023/07/19 14:06:50;;;;;;;1.88;0.65;;;;;;;;;;5111199;28;20051;-64
2023/07/19 14:09:16;;;;;;;2.45;0.75;;;;;;;;;;5112839;27;20073;-65
2023/07/19 14:11:42;;;;;;;2.17;0.82;;;;;;;;;;5113496;28;20032;-65
2023/07/19 14:14:08;;;;;;;2.60;0.60;;;;;;;;;;5112164;27;20216;-65
2023/07/19 14:16:34;;;;;;;5.38;0.90;;;;;;;;;;5112372;28;20100;-65
2023/07/19 14:19:01;;;;;;;4.85;1.08;;;;;;;;;;5113189;28;20348;-65
2023/07/19 14:21:27;;;;;;;2.45;1.00;;;;;;;;;;5112539;28;20043;-65
2023/07/19 14:23:53;;;;;;;1.27;0.63;;;;;;;;;;5111553;27;20043;-65
2023/07/19 14:26:19;;;;;;;3.08;1.00;;;;;;;;;;5112263;28;20100;-65
2023/07/19 14:28:45;;;;;;;2.85;0.77;;;;;;;;;;5110540;27;20408;-65
2023/07/19 14:31:12;;;;;;;2.08;0.80;;;;;;;;;;5113149;27;20044;-65
2023/07/19 14:33:38;;;;;;;2.00;0.70;;;;;;;;;;5113623;27;20131;-65
2023/07/19 14:36:04;;;;;;;2.17;0.80;;;;;;;;;;5111969;28;20035;-65